createdAt,value
2024-05-09T00:00:51.563Z,5.35
2024-05-09T00:03:21.836Z,3.22
2024-05-09T00:05:52.188Z,6.63
2024-05-09T00:08:25.181Z,2.70
2024-05-09T00:10:55.794Z,5.20
2024-05-09T00:13:26.711Z,4.60
2024-05-09T00:15:56.833Z,5.45
2024-05-09T00:18:27.675Z,4.75
2024-05-09T00:20:58.071Z,4.60
2024-05-09T00:23:31.123Z,7.35
2024-05-09T00:26:01.731Z,6.03
2024-05-09T00:28:32.290Z,4.95
2024-05-09T00:31:02.434Z,5.53
2024-05-09T00:33:33.009Z,4.95
2024-05-09T00:36:03.569Z,4.00
2024-05-09T00:38:36.497Z,3.17
2024-05-09T00:41:06.906Z,3.65
2024-05-09T00:43:37.278Z,4.40
2024-05-09T00:46:08.134Z,6.03
2024-05-09T00:48:38.846Z,4.55
2024-05-09T00:51:10.317Z,3.63
2024-05-09T00:53:43.617Z,4.97
2024-05-09T00:56:15.374Z,4.60
2024-05-09T00:58:46.712Z,3.80
2024-05-09T01:01:17.320Z,4.15
2024-05-09T01:03:50.437Z,3.65
2024-05-09T01:06:24.208Z,3.70
2024-05-09T01:08:57.163Z,8.15
2024-05-09T01:11:27.712Z,4.22
2024-05-09T01:13:58.134Z,3.92
2024-05-09T01:16:28.871Z,5.28
2024-05-09T01:18:59.319Z,4.55
2024-05-09T01:21:29.867Z,4.80
2024-05-09T01:24:02.761Z,3.42
2024-05-09T01:26:32.987Z,4.03
2024-05-09T01:29:03.609Z,3.33
2024-05-09T01:31:33.816Z,3.83
2024-05-09T01:34:04.335Z,4.28
2024-05-09T01:36:34.667Z,4.43
2024-05-09T01:39:08.096Z,2.72
2024-05-09T01:41:38.325Z,4.35
2024-05-09T01:44:09.147Z,5.43
2024-05-09T01:46:39.321Z,4.38
2024-05-09T01:49:09.686Z,3.30
2024-05-09T01:51:40.037Z,4.72
2024-05-09T01:54:13.152Z,5.20
2024-05-09T01:56:43.291Z,3.33
2024-05-09T01:59:13.810Z,5.30
2024-05-09T02:01:56.369Z,5.38
2024-05-09T02:04:28.552Z,4.57
2024-05-09T02:06:59.054Z,4.53
2024-05-09T02:09:32.465Z,4.60
2024-05-09T02:12:02.701Z,4.70
2024-05-09T02:14:33.361Z,4.20
2024-05-09T02:17:03.642Z,6.45
2024-05-09T02:19:34.045Z,3.33
2024-05-09T02:22:04.284Z,4.43
2024-05-09T02:24:37.250Z,3.58
2024-05-09T02:27:07.592Z,4.72
2024-05-09T02:29:38.300Z,5.10
2024-05-09T02:32:09.405Z,5.00
2024-05-09T02:34:39.619Z,4.45
2024-05-09T02:37:10.110Z,5.75
2024-05-09T02:39:40.423Z,4.13
2024-05-09T02:42:10.669Z,5.00
2024-05-09T02:44:38.332Z,5.97
2024-05-09T02:47:08.738Z,5.32
2024-05-09T02:49:36.475Z,4.88
2024-05-09T02:52:06.862Z,3.08
2024-05-09T02:54:34.471Z,4.65
2024-05-09T02:57:07.383Z,3.97
2024-05-09T02:59:35.940Z,6.15
2024-05-09T03:02:06.309Z,3.20
2024-05-09T03:04:34.129Z,5.18
2024-05-09T03:07:04.819Z,5.82
2024-05-09T03:09:33.053Z,5.68
2024-05-09T03:12:03.638Z,3.50
2024-05-09T03:14:34.322Z,6.57
2024-05-09T03:17:04.750Z,4.88
2024-05-09T03:19:32.466Z,4.10
2024-05-09T03:22:02.668Z,6.47
2024-05-09T03:24:30.507Z,4.20
2024-05-09T03:27:01.196Z,6.15
2024-05-09T03:29:28.810Z,8.82
2024-05-09T03:32:02.609Z,5.65
2024-05-09T03:34:30.633Z,3.40
2024-05-09T03:37:01.234Z,7.50
2024-05-09T03:39:31.482Z,6.90
2024-05-09T03:42:01.686Z,4.18
2024-05-09T03:44:31.907Z,4.38
2024-05-09T03:47:04.852Z,5.68
2024-05-09T03:49:32.680Z,7.72
2024-05-09T03:52:05.348Z,4.93
2024-05-09T03:54:32.957Z,3.72
2024-05-09T03:57:03.434Z,5.85
2024-05-09T03:59:31.200Z,4.35
2024-05-09T04:02:01.589Z,4.10
2024-05-09T04:04:32.735Z,5.93
2024-05-09T04:07:02.918Z,4.20
2024-05-09T04:09:30.918Z,4.75
2024-05-09T04:12:01.283Z,4.18
2024-05-09T04:14:29.032Z,4.22
2024-05-09T04:16:59.401Z,4.40
2024-05-09T04:19:27.219Z,4.80
2024-05-09T04:22:00.566Z,5.13
2024-05-09T04:24:28.520Z,3.38
2024-05-09T04:26:58.983Z,3.88
2024-05-09T04:29:27.058Z,4.03
2024-05-09T04:31:57.471Z,4.28
2024-05-09T04:34:25.499Z,4.95
2024-05-09T04:36:55.803Z,5.07
2024-05-09T04:39:26.341Z,3.47
2024-05-09T04:41:56.522Z,3.38
2024-05-09T04:44:24.139Z,4.38
2024-05-09T04:46:54.629Z,3.35
2024-05-09T04:49:22.400Z,4.03
2024-05-09T04:51:52.735Z,3.78
2024-05-09T04:56:56.532Z,14.90
2024-05-09T04:59:24.292Z,18.33
2024-05-09T05:01:54.768Z,6.97
2024-05-09T05:04:22.542Z,6.78
2024-05-09T05:06:53.186Z,5.18
2024-05-09T05:09:20.710Z,8.93
2024-05-09T05:11:51.356Z,4.53
2024-05-09T05:14:21.665Z,3.70
2024-05-09T05:16:51.903Z,4.55
2024-05-09T05:19:19.554Z,5.40
2024-05-09T05:21:49.796Z,5.85
2024-05-09T05:24:17.899Z,5.80
2024-05-09T05:26:48.602Z,5.88
2024-05-09T05:29:18.593Z,3.10
2024-05-09T05:31:53.286Z,4.97
2024-05-09T05:34:21.116Z,5.18
2024-05-09T05:36:51.294Z,5.55
2024-05-09T05:39:18.889Z,3.10
2024-05-09T05:41:49.131Z,4.68
2024-05-09T05:44:16.704Z,6.15
2024-05-09T05:46:46.903Z,6.35
2024-05-09T05:49:17.664Z,3.10
2024-05-09T05:51:47.954Z,3.53
2024-05-09T05:54:15.615Z,3.40
2024-05-09T05:56:46.073Z,3.35
2024-05-09T05:59:15.363Z,3.35
2024-05-09T06:01:46.184Z,2.90
2024-05-09T06:04:14.154Z,4.03
2024-05-09T06:06:47.102Z,3.72
2024-05-09T06:09:15.175Z,4.50
2024-05-09T06:11:45.875Z,4.85
2024-05-09T06:14:13.961Z,3.42
2024-05-09T06:16:44.494Z,2.90
2024-05-09T06:19:12.349Z,3.35
2024-05-09T06:21:42.698Z,3.90
2024-05-09T06:24:13.633Z,2.70
2024-05-09T06:26:46.555Z,3.33
2024-05-09T06:29:14.318Z,5.75
2024-05-09T06:31:44.802Z,3.83
2024-05-09T06:34:12.736Z,5.57
2024-05-09T06:36:42.987Z,3.22
2024-05-09T06:39:13.278Z,3.47
2024-05-09T06:41:43.515Z,3.95
2024-05-09T06:44:11.266Z,3.83
2024-05-09T06:46:42.263Z,4.55
2024-05-09T06:49:11.778Z,2.97
2024-05-09T06:51:42.391Z,3.60
2024-05-09T06:54:10.066Z,3.72
2024-05-09T06:56:43.151Z,3.63
2024-05-09T06:59:11.303Z,3.13
2024-05-09T07:01:41.592Z,3.17
2024-05-09T07:04:09.434Z,3.20
2024-05-09T07:06:40.149Z,2.90
2024-05-09T07:09:07.713Z,3.22
2024-05-09T07:11:38.593Z,4.35
2024-05-09T07:14:08.935Z,2.55
2024-05-09T07:16:39.802Z,4.32
2024-05-09T07:19:07.907Z,3.42
2024-05-09T07:21:38.275Z,2.80
2024-05-09T07:24:06.711Z,3.15
2024-05-09T07:26:37.683Z,4.10
2024-05-09T07:29:05.856Z,3.33
2024-05-09T07:31:38.810Z,3.83
2024-05-09T07:34:06.520Z,4.25
2024-05-09T07:36:36.856Z,3.97
2024-05-09T07:39:05.754Z,2.88
2024-05-09T07:41:36.398Z,4.00
2024-05-09T07:44:04.261Z,2.72
2024-05-09T07:54:13.899Z,2.78
2024-05-09T07:56:44.442Z,4.55
2024-05-09T07:59:12.538Z,2.53
2024-05-09T08:01:43.446Z,3.30
2024-05-09T08:04:16.361Z,3.95
2024-05-09T08:06:44.194Z,4.22
2024-05-09T08:09:19.611Z,5.82
2024-05-09T08:11:52.863Z,3.80
2024-05-09T08:14:23.719Z,3.20
2024-05-09T08:16:51.281Z,2.83
2024-05-09T08:19:24.330Z,2.60
2024-05-09T08:21:52.030Z,2.75
2024-05-09T08:24:22.661Z,2.95
2024-05-09T08:26:50.340Z,4.65
2024-05-09T08:29:20.536Z,2.45
2024-05-09T08:31:48.338Z,3.78
2024-05-09T08:34:18.637Z,2.60
2024-05-09T08:36:49.370Z,2.38
2024-05-09T08:39:19.584Z,4.05
2024-05-09T08:41:50.479Z,5.40
2024-05-09T08:44:22.072Z,3.38
2024-05-09T08:46:51.973Z,2.60
2024-05-09T08:49:22.616Z,2.95
2024-05-09T08:51:53.248Z,1.88
2024-05-09T08:54:23.688Z,4.43
2024-05-09T08:56:52.675Z,2.85
2024-05-09T08:59:27.558Z,1.80
2024-05-09T09:01:55.389Z,3.17
2024-05-09T09:04:27.229Z,2.38
2024-05-09T09:06:59.728Z,2.53
2024-05-09T09:09:31.050Z,4.32
2024-05-09T09:11:59.004Z,4.15
2024-05-09T09:14:29.150Z,2.45
2024-05-09T09:16:56.710Z,1.95
2024-05-09T09:19:27.342Z,3.95
2024-05-09T09:21:57.895Z,2.30
2024-05-09T09:24:28.241Z,3.67
2024-05-09T09:26:58.734Z,2.20
2024-05-09T09:29:29.108Z,5.00
2024-05-09T09:31:59.976Z,3.58
2024-05-09T09:34:31.646Z,3.30
2024-05-09T09:37:04.202Z,2.88
2024-05-09T09:39:35.229Z,2.92
2024-05-09T09:42:03.444Z,1.83
2024-05-09T09:44:35.525Z,2.92
2024-05-09T09:47:05.195Z,3.55
2024-05-09T09:49:36.926Z,2.40
2024-05-09T09:52:09.952Z,2.85
2024-05-09T09:54:41.896Z,5.13
2024-05-09T09:57:09.529Z,3.92
2024-05-09T09:59:40.451Z,4.25
2024-05-09T10:02:08.341Z,3.25
2024-05-09T10:04:40.055Z,4.50
2024-05-09T10:07:11.971Z,2.28
2024-05-09T10:09:43.226Z,4.93
2024-05-09T10:12:11.622Z,3.05
2024-05-09T10:14:48.870Z,3.92
2024-05-09T10:17:16.763Z,4.70
2024-05-09T10:19:47.346Z,4.47
2024-05-09T10:22:27.446Z,2.65
2024-05-09T10:24:59.131Z,3.58
2024-05-09T10:27:27.816Z,1.83
2024-05-09T10:29:58.888Z,2.15
2024-05-09T10:32:28.231Z,4.50
2024-05-09T10:35:05.200Z,3.72
2024-05-09T10:37:36.010Z,3.05
2024-05-09T10:40:13.974Z,4.63
2024-05-09T10:42:45.371Z,2.70
2024-05-09T10:45:16.710Z,2.40
2024-05-09T10:47:44.390Z,3.67
2024-05-09T10:50:22.306Z,2.55
2024-05-09T10:52:58.533Z,3.42
2024-05-09T10:55:29.315Z,3.28
2024-05-09T10:57:56.984Z,2.65
2024-05-09T11:00:36.207Z,4.55
2024-05-09T11:03:04.514Z,2.03
2024-05-09T11:05:35.160Z,5.68
2024-05-09T11:08:06.327Z,1.77
2024-05-09T11:10:36.601Z,4.63
2024-05-09T11:13:04.683Z,2.13
2024-05-09T11:15:41.457Z,2.30
2024-05-09T11:18:09.979Z,2.67
2024-05-09T11:20:40.785Z,3.75
2024-05-09T11:23:11.079Z,3.67
2024-05-09T11:25:41.386Z,4.50
2024-05-09T11:28:09.099Z,2.83
2024-05-09T11:30:39.437Z,3.00
2024-05-09T11:33:07.574Z,1.98
2024-05-09T11:35:37.754Z,2.72
2024-05-09T11:38:05.924Z,4.10
2024-05-09T11:40:39.442Z,3.40
2024-05-09T11:43:07.460Z,1.80
2024-05-09T11:45:37.821Z,3.63
2024-05-09T11:48:05.720Z,2.08
2024-05-09T11:50:36.408Z,6.53
2024-05-09T11:53:04.796Z,1.98
2024-05-09T11:55:36.691Z,2.67
2024-05-09T11:58:08.462Z,3.97
2024-05-09T12:00:39.047Z,2.10
2024-05-09T12:03:06.918Z,3.08
2024-05-09T12:05:37.308Z,1.77
2024-05-09T12:08:05.633Z,2.85
2024-05-09T12:10:37.026Z,2.55
2024-05-09T12:13:08.252Z,1.75
2024-05-09T12:15:39.883Z,1.77
2024-05-09T12:18:08.463Z,2.53
2024-05-09T12:20:40.282Z,2.15
2024-05-09T12:23:10.086Z,4.20
2024-05-09T12:25:40.935Z,3.50
2024-05-09T12:28:11.260Z,1.88
2024-05-09T12:30:42.148Z,2.15
2024-05-09T12:33:11.570Z,3.42
2024-05-09T12:35:45.289Z,3.83
2024-05-09T12:38:14.645Z,2.05
2024-05-09T12:40:45.335Z,1.58
2024-05-09T12:43:16.088Z,2.95
2024-05-09T12:45:46.544Z,3.95
2024-05-09T12:48:14.308Z,2.72
2024-05-09T12:50:44.746Z,1.70
2024-05-09T12:53:12.559Z,2.30
2024-05-09T12:55:48.992Z,3.17
2024-05-09T12:58:26.938Z,2.38
2024-05-09T13:00:57.311Z,2.78
2024-05-09T13:03:25.169Z,2.45
2024-05-09T13:05:55.700Z,1.90
2024-05-09T13:08:23.980Z,2.00
2024-05-09T13:10:54.414Z,3.88
2024-05-09T13:13:22.038Z,2.97
2024-05-09T13:15:55.362Z,2.13
2024-05-09T13:18:22.955Z,2.47
2024-05-09T13:20:53.458Z,2.10
2024-05-09T13:23:21.004Z,1.85
2024-05-09T13:25:51.284Z,2.28
2024-05-09T13:28:19.478Z,2.17
2024-05-09T13:30:50.322Z,1.67
2024-05-09T13:33:20.807Z,3.08
2024-05-09T13:35:51.403Z,2.47
2024-05-09T13:38:20.245Z,6.20
2024-05-09T13:40:51.231Z,3.03
2024-05-09T13:43:19.349Z,2.65
2024-05-09T13:45:50.466Z,2.03
2024-05-09T13:48:20.878Z,1.58
2024-05-09T13:50:51.287Z,1.95
2024-05-09T13:53:19.083Z,1.80
2024-05-09T13:55:49.522Z,1.45
2024-05-09T13:58:17.488Z,1.48
2024-05-09T14:00:49.431Z,2.13
2024-05-09T14:03:19.110Z,3.40
2024-05-09T14:05:53.413Z,1.92
2024-05-09T14:08:22.548Z,2.88
2024-05-09T14:10:53.957Z,2.85
2024-05-09T14:13:22.254Z,1.40
2024-05-09T14:15:52.939Z,2.00
2024-05-09T14:18:20.883Z,1.95
2024-05-09T14:20:54.942Z,1.30
2024-05-09T14:23:23.428Z,2.42
2024-05-09T14:25:53.839Z,2.25
2024-05-09T14:28:23.244Z,2.65
2024-05-09T14:30:56.630Z,2.85
2024-05-09T14:33:27.151Z,3.45
2024-05-09T14:36:00.513Z,4.10
2024-05-09T14:38:28.198Z,4.00
2024-05-09T14:40:58.913Z,2.75
2024-05-09T14:43:26.795Z,4.70
2024-05-09T14:45:57.166Z,2.00
2024-05-09T14:48:24.845Z,4.05
2024-05-09T14:50:56.103Z,3.35
2024-05-09T14:53:28.277Z,2.85
2024-05-09T14:55:58.550Z,2.35
2024-05-09T14:58:26.727Z,4.30
2024-05-09T15:00:57.146Z,2.22
2024-05-09T15:03:24.893Z,5.93
2024-05-09T15:05:55.314Z,16.00
2024-05-09T15:08:23.297Z,47.70
2024-05-09T15:10:56.282Z,119.18
2024-05-09T15:13:25.397Z,103.13
2024-05-09T15:15:56.057Z,53.33
2024-05-09T15:18:23.877Z,51.05
2024-05-09T15:20:54.165Z,22.48
2024-05-09T15:23:21.785Z,24.20
2024-05-09T15:25:52.538Z,6.80
2024-05-09T15:28:23.097Z,9.57
2024-05-09T15:30:53.989Z,6.68
2024-05-09T15:33:21.631Z,5.82
2024-05-09T15:35:52.080Z,3.78
2024-05-09T15:38:20.391Z,3.08
2024-05-09T15:40:51.054Z,6.70
2024-05-09T15:43:18.840Z,5.55
2024-05-09T15:45:52.178Z,6.18
2024-05-09T15:48:20.129Z,24.80
2024-05-09T15:50:50.537Z,3.03
2024-05-09T15:53:18.711Z,25.60
2024-05-09T15:55:49.590Z,6.05
2024-05-09T15:58:17.417Z,50.17
2024-05-09T16:00:49.754Z,15.30
2024-05-09T16:03:22.578Z,17.33
2024-05-09T16:05:55.727Z,19.55
2024-05-09T16:08:23.419Z,3.92
2024-05-09T16:10:53.831Z,2.90
2024-05-09T16:13:22.103Z,4.15
2024-05-09T16:15:52.581Z,3.42
2024-05-09T16:18:23.142Z,7.05
2024-05-09T16:20:59.661Z,3.17
2024-05-09T16:23:29.990Z,2.83
2024-05-09T16:25:57.746Z,2.67
2024-05-09T16:28:28.553Z,1.50
2024-05-09T16:30:56.374Z,2.40
2024-05-09T16:33:29.506Z,3.45
2024-05-09T16:35:58.154Z,1.98
2024-05-09T16:38:28.686Z,2.38
2024-05-09T16:40:56.313Z,24.52
2024-05-09T16:43:27.115Z,8.82
2024-05-09T16:45:54.968Z,9.48
2024-05-09T16:48:25.287Z,8.82
2024-05-09T16:50:55.500Z,14.75
2024-05-09T16:53:25.852Z,4.68
2024-05-09T16:55:53.935Z,8.48
2024-05-09T16:58:24.300Z,7.30
2024-05-09T17:00:52.269Z,5.40
2024-05-09T17:03:23.766Z,2.85
2024-05-09T17:05:51.694Z,2.63
2024-05-09T17:08:25.051Z,4.88
2024-05-09T17:10:52.802Z,4.95
2024-05-09T17:13:23.474Z,2.83
2024-05-09T17:15:54.043Z,2.53
2024-05-09T17:18:24.552Z,2.38
2024-05-09T17:20:55.053Z,2.05
2024-05-09T17:23:25.279Z,5.28
2024-05-09T17:25:55.635Z,2.60
2024-05-09T17:28:23.235Z,4.60
2024-05-09T17:30:53.891Z,2.75
2024-05-09T17:33:21.576Z,2.20
2024-05-09T17:35:52.984Z,2.72
2024-05-09T17:38:22.982Z,4.22
2024-05-09T17:40:56.248Z,5.90
2024-05-09T17:43:24.079Z,2.22
2024-05-09T17:45:54.852Z,2.95
2024-05-09T17:48:22.772Z,1.55
2024-05-09T17:50:53.748Z,1.63
2024-05-09T17:53:21.716Z,2.28
2024-05-09T17:55:54.207Z,3.28
2024-05-09T17:58:24.783Z,1.90
2024-05-09T18:00:55.809Z,1.63
2024-05-09T18:03:23.730Z,2.00
2024-05-09T18:05:54.509Z,3.72
2024-05-09T18:08:22.164Z,2.05
2024-05-09T18:10:55.205Z,2.88
2024-05-09T18:13:26.410Z,6.90
2024-05-09T18:15:57.271Z,9.77
2024-05-09T18:18:25.125Z,6.35
2024-05-09T18:20:55.544Z,3.10
2024-05-09T18:23:23.453Z,4.30
2024-05-09T18:25:54.807Z,5.70
2024-05-09T18:28:25.869Z,2.15
2024-05-09T18:30:56.296Z,11.05
2024-05-09T18:33:25.122Z,2.42
2024-05-09T18:35:55.774Z,3.38
2024-05-09T18:38:26.852Z,5.47
2024-05-09T18:40:57.950Z,13.77
2024-05-09T18:43:34.848Z,2.78
2024-05-09T18:46:08.935Z,3.03
2024-05-09T18:48:36.771Z,2.10
2024-05-09T18:51:08.291Z,2.25
2024-05-09T18:53:35.807Z,4.38
2024-05-09T18:56:05.983Z,1.90
2024-05-09T18:58:36.240Z,5.18
2024-05-09T19:01:06.559Z,4.43
2024-05-09T19:03:35.507Z,1.73
2024-05-09T19:06:06.118Z,2.33
2024-05-09T19:08:34.406Z,2.03
2024-05-09T19:11:04.699Z,1.98
2024-05-09T19:13:32.528Z,4.10
2024-05-09T19:16:05.708Z,2.30
2024-05-09T19:18:33.496Z,5.03
2024-05-09T19:21:03.954Z,4.05
2024-05-09T19:23:35.357Z,5.13
2024-05-09T19:26:08.687Z,3.25
2024-05-09T19:28:36.324Z,3.45
2024-05-09T19:31:09.487Z,2.63
2024-05-09T19:33:38.462Z,2.47
2024-05-09T19:36:08.953Z,3.75
2024-05-09T19:38:36.621Z,1.63
2024-05-09T19:41:07.106Z,4.43
2024-05-09T19:43:36.152Z,4.15
2024-05-09T19:46:09.365Z,2.38
2024-05-09T19:48:37.501Z,1.95
2024-05-09T19:51:08.063Z,1.73
2024-05-09T19:53:35.669Z,2.88
2024-05-09T19:56:06.367Z,5.72
2024-05-09T19:58:34.677Z,2.55
2024-05-09T20:01:05.085Z,2.03
2024-05-09T20:03:37.228Z,4.60
2024-05-09T20:06:07.943Z,4.25
2024-05-09T20:08:35.868Z,3.92
2024-05-09T20:11:06.258Z,2.42
2024-05-09T20:13:34.051Z,2.95
2024-05-09T20:16:04.297Z,3.95
2024-05-09T20:18:32.001Z,4.10
2024-05-09T20:21:06.625Z,3.45
2024-05-09T20:23:34.625Z,2.42
2024-05-09T20:26:05.558Z,6.53
2024-05-09T20:28:33.624Z,3.20
2024-05-09T20:31:04.413Z,2.67
2024-05-09T20:33:32.564Z,2.60
2024-05-09T20:36:05.445Z,3.28
2024-05-09T20:38:33.077Z,3.35
2024-05-09T20:41:03.433Z,6.32
2024-05-09T20:43:31.060Z,2.65
2024-05-09T20:46:01.217Z,2.42
2024-05-09T20:48:29.008Z,4.55
2024-05-09T20:50:59.269Z,4.20
2024-05-09T20:53:29.466Z,4.05
2024-05-09T20:55:59.677Z,5.90
2024-05-09T20:58:27.946Z,3.95
2024-05-09T21:00:58.261Z,5.47
2024-05-09T21:03:26.428Z,4.95
2024-05-09T21:05:56.750Z,3.67
2024-05-09T21:08:25.222Z,4.47
2024-05-09T21:10:59.522Z,2.85
2024-05-09T21:13:27.358Z,4.35
2024-05-09T21:15:57.807Z,3.05
2024-05-09T21:18:25.551Z,3.38
2024-05-09T21:20:55.859Z,3.10
2024-05-09T21:23:23.468Z,4.03
2024-05-09T21:25:53.675Z,2.83
2024-05-09T21:28:24.399Z,2.78
2024-05-09T21:30:55.202Z,3.70
2024-05-09T21:33:23.107Z,3.85
2024-05-09T21:35:53.447Z,3.45
2024-05-09T21:38:21.062Z,2.90
2024-05-09T21:40:51.731Z,2.95
2024-05-09T21:43:19.563Z,2.65
2024-05-09T21:45:52.639Z,3.42
2024-05-09T21:48:20.300Z,2.97
2024-05-09T21:50:50.657Z,2.20
2024-05-09T21:53:19.407Z,3.50
2024-05-09T21:55:50.030Z,4.10
2024-05-09T21:58:18.098Z,2.35
2024-05-09T22:00:48.992Z,4.95
2024-05-09T22:03:19.638Z,4.45
2024-05-09T22:05:50.007Z,10.02
2024-05-09T22:08:17.546Z,8.05
2024-05-09T22:10:48.303Z,4.40
2024-05-09T22:13:17.051Z,5.03
2024-05-09T22:15:47.580Z,5.20
2024-05-09T22:18:15.274Z,3.97
2024-05-09T22:20:48.525Z,5.80
2024-05-09T22:23:16.269Z,2.80
2024-05-09T22:25:46.586Z,4.45
2024-05-09T22:28:15.961Z,4.65
2024-05-09T22:30:47.437Z,6.93
2024-05-09T22:33:15.711Z,4.20
2024-05-09T22:35:49.142Z,3.88
2024-05-09T22:38:17.120Z,2.63
2024-05-09T22:40:49.631Z,3.28
2024-05-09T22:43:23.686Z,3.00
2024-05-09T22:45:56.103Z,3.88
2024-05-09T22:48:24.755Z,4.55
2024-05-09T22:50:58.083Z,4.07
2024-05-09T22:53:26.351Z,6.00
2024-05-09T22:55:56.903Z,4.10
2024-05-09T22:58:24.637Z,4.28
2024-05-09T23:00:55.449Z,4.07
2024-05-09T23:03:23.455Z,7.22
2024-05-09T23:05:53.786Z,3.22
2024-05-09T23:08:24.415Z,3.00
2024-05-09T23:10:54.824Z,5.75
2024-05-09T23:13:22.720Z,5.38
2024-05-09T23:15:53.425Z,3.20
2024-05-09T23:18:21.265Z,4.38
2024-05-09T23:20:51.942Z,4.20
2024-05-09T23:23:19.859Z,4.10
2024-05-09T23:25:53.219Z,4.63
2024-05-09T23:28:21.124Z,4.28
2024-05-09T23:30:51.467Z,5.68
2024-05-09T23:33:19.303Z,4.03
2024-05-09T23:35:49.538Z,5.18
2024-05-09T23:38:18.377Z,3.60
2024-05-09T23:40:52.410Z,3.65
2024-05-09T23:43:20.152Z,3.38
2024-05-09T23:45:50.526Z,3.28
2024-05-09T23:48:18.344Z,6.45
2024-05-09T23:50:48.593Z,5.88
2024-05-09T23:53:16.215Z,5.05
2024-05-09T23:55:46.423Z,4.72
2024-05-09T23:58:17.269Z,3.42
